createdAt,value
2018-12-29T00:00:41.647Z,59.10
2018-12-29T00:03:11.063Z,59.10
2018-12-29T00:05:41.641Z,59.00
2018-12-29T00:08:13.051Z,59.00
2018-12-29T00:10:42.571Z,58.90
2018-12-29T00:13:12.187Z,59.00
2018-12-29T00:15:41.771Z,59.10
2018-12-29T00:18:12.300Z,59.20
2018-12-29T00:20:43.159Z,59.10
2018-12-29T00:23:14.369Z,59.20
2018-12-29T00:25:45.336Z,59.20
2018-12-29T00:28:14.737Z,59.20
2018-12-29T00:30:44.131Z,59.30
2018-12-29T00:33:13.564Z,59.20
2018-12-29T00:35:43.108Z,59.20
2018-12-29T00:38:12.584Z,59.20
2018-12-29T00:40:42.093Z,59.30
2018-12-29T00:43:11.566Z,59.30
2018-12-29T00:45:41.965Z,59.20
2018-12-29T00:48:11.409Z,59.20
2018-12-29T00:50:40.883Z,59.30
2018-12-29T00:53:11.416Z,59.90
2018-12-29T00:55:40.907Z,59.40
2018-12-29T00:58:10.437Z,59.40
2018-12-29T01:00:39.869Z,59.40
2018-12-29T01:03:09.339Z,59.40
2018-12-29T01:05:38.732Z,59.40
2018-12-29T01:08:08.159Z,59.40
2018-12-29T01:10:37.647Z,59.50
2018-12-29T01:13:07.076Z,59.40
2018-12-29T01:15:36.478Z,59.30
2018-12-29T01:18:05.885Z,59.40
2018-12-29T01:20:36.421Z,59.40
2018-12-29T01:23:05.858Z,59.30
2018-12-29T01:25:35.315Z,59.30
2018-12-29T01:28:04.929Z,59.30
2018-12-29T01:30:34.328Z,59.30
2018-12-29T01:33:03.804Z,59.30
2018-12-29T01:35:33.268Z,59.30
2018-12-29T01:38:02.680Z,59.40
2018-12-29T01:40:32.147Z,59.40
2018-12-29T01:43:03.376Z,59.40
2018-12-29T01:45:33.102Z,59.50
2018-12-29T01:48:02.532Z,59.50
2018-12-29T01:50:32.009Z,59.60
2018-12-29T01:53:01.484Z,59.60
2018-12-29T01:55:31.000Z,59.80
2018-12-29T01:58:00.701Z,59.80
2018-12-29T02:00:30.221Z,59.80
2018-12-29T02:03:00.796Z,59.90
2018-12-29T02:05:30.259Z,60.00
2018-12-29T02:07:59.665Z,60.00
2018-12-29T02:10:29.088Z,60.10
2018-12-29T02:12:58.488Z,60.20
2018-12-29T02:15:28.893Z,60.40
2018-12-29T02:17:58.632Z,60.40
2018-12-29T02:20:28.270Z,60.60
2018-12-29T02:22:59.555Z,60.60
2018-12-29T02:25:28.968Z,60.70
2018-12-29T02:27:58.399Z,60.70
2018-12-29T02:30:27.797Z,60.80
2018-12-29T02:32:57.201Z,60.80
2018-12-29T02:35:26.675Z,60.90
2018-12-29T02:37:56.168Z,61.00
2018-12-29T02:40:25.633Z,60.90
2018-12-29T02:42:55.056Z,61.10
2018-12-29T02:45:24.493Z,61.20
2018-12-29T02:47:53.927Z,61.10
2018-12-29T02:50:23.402Z,61.00
2018-12-29T02:52:54.872Z,61.10
2018-12-29T02:55:24.377Z,61.00
2018-12-29T02:57:53.873Z,61.10
2018-12-29T03:00:23.349Z,61.10
2018-12-29T03:02:52.866Z,61.20
2018-12-29T03:05:22.331Z,61.30
2018-12-29T03:07:51.730Z,61.20
2018-12-29T03:10:21.212Z,61.30
2018-12-29T03:12:50.623Z,61.20
2018-12-29T03:15:20.115Z,61.20
2018-12-29T03:17:50.533Z,61.30
2018-12-29T03:20:21.212Z,61.30
2018-12-29T03:22:50.732Z,61.30
2018-12-29T03:25:20.147Z,61.30
2018-12-29T03:27:50.558Z,61.30
2018-12-29T03:30:20.067Z,61.30
2018-12-29T03:32:49.542Z,61.40
2018-12-29T03:35:19.011Z,61.40
2018-12-29T03:37:48.444Z,61.40
2018-12-29T03:40:17.852Z,61.40
2018-12-29T03:42:47.328Z,61.40
2018-12-29T03:45:16.744Z,61.40
2018-12-29T03:47:46.151Z,61.40
2018-12-29T03:50:16.849Z,62.00
2018-12-29T03:53:05.347Z,61.30
2018-12-29T03:55:34.944Z,61.40
2018-12-29T03:58:04.473Z,61.30
2018-12-29T04:00:33.940Z,61.30
2018-12-29T04:03:23.940Z,62.00
2018-12-29T04:05:53.412Z,61.30
2018-12-29T04:08:22.901Z,61.20
2018-12-29T04:10:52.328Z,61.30
2018-12-29T04:13:21.814Z,61.30
2018-12-29T04:15:58.225Z,61.30
2018-12-29T04:18:25.042Z,61.30
2018-12-29T04:20:54.457Z,61.30
2018-12-29T04:23:23.867Z,61.30
2018-12-29T04:25:53.292Z,61.40
2018-12-29T04:28:22.691Z,61.40
2018-12-29T04:30:52.126Z,61.30
2018-12-29T04:33:21.623Z,61.30
2018-12-29T04:35:51.028Z,61.40
2018-12-29T04:38:20.440Z,61.30
2018-12-29T04:40:49.857Z,61.30
2018-12-29T04:43:19.256Z,61.30
2018-12-29T04:45:48.761Z,61.40
2018-12-29T04:48:20.066Z,61.40
2018-12-29T04:50:49.531Z,61.50
2018-12-29T04:53:37.977Z,61.50
2018-12-29T04:56:07.461Z,61.50
2018-12-29T04:58:36.957Z,61.40
2018-12-29T05:01:06.355Z,61.40
2018-12-29T05:03:35.763Z,61.50
2018-12-29T05:06:06.292Z,61.50
2018-12-29T05:08:38.976Z,61.50
2018-12-29T05:11:08.457Z,61.60
2018-12-29T05:13:37.925Z,61.50
2018-12-29T05:16:12.732Z,61.60
2018-12-29T05:18:38.461Z,61.60
2018-12-29T05:21:07.929Z,61.50
2018-12-29T05:23:37.365Z,61.50
2018-12-29T05:26:06.764Z,61.50
2018-12-29T05:28:36.151Z,61.60
2018-12-29T05:31:05.575Z,61.50
2018-12-29T05:33:35.015Z,61.60
2018-12-29T05:36:04.472Z,61.70
2018-12-29T05:38:33.988Z,61.70
2018-12-29T05:41:03.384Z,61.60
2018-12-29T05:43:32.965Z,61.60
2018-12-29T05:46:02.461Z,61.50
2018-12-29T05:48:31.973Z,61.50
2018-12-29T05:51:01.453Z,61.50
2018-12-29T05:53:32.036Z,61.50
2018-12-29T05:56:01.445Z,61.60
2018-12-29T05:58:30.879Z,61.10
2018-12-29T06:01:00.374Z,61.40
2018-12-29T06:03:29.886Z,61.60
2018-12-29T06:05:59.289Z,61.50
2018-12-29T06:08:29.896Z,61.60
2018-12-29T06:10:59.312Z,61.60
2018-12-29T06:13:28.719Z,61.60
2018-12-29T06:15:58.208Z,61.50
2018-12-29T06:18:27.610Z,61.40
2018-12-29T06:20:57.199Z,61.50
2018-12-29T06:23:27.556Z,61.40
2018-12-29T06:25:56.946Z,61.40
2018-12-29T06:28:27.555Z,61.40
2018-12-29T06:30:56.955Z,61.40
2018-12-29T06:33:26.437Z,61.40
2018-12-29T06:35:55.856Z,61.40
2018-12-29T06:38:25.260Z,61.40
2018-12-29T06:40:56.537Z,61.40
2018-12-29T06:43:27.415Z,61.40
2018-12-29T06:45:56.813Z,61.40
2018-12-29T06:48:26.227Z,61.30
2018-12-29T06:50:55.728Z,61.40
2018-12-29T06:53:25.154Z,61.40
2018-12-29T06:55:54.556Z,61.40
2018-12-29T06:58:23.959Z,61.40
2018-12-29T07:00:53.386Z,61.40
2018-12-29T07:03:22.810Z,61.40
2018-12-29T07:05:53.308Z,61.50
2018-12-29T07:08:22.704Z,61.40
2018-12-29T07:10:52.111Z,61.40
2018-12-29T07:13:21.524Z,61.40
2018-12-29T07:15:50.948Z,61.40
2018-12-29T07:18:20.449Z,61.40
2018-12-29T07:20:50.848Z,61.40
2018-12-29T07:23:20.262Z,61.50
2018-12-29T07:25:49.673Z,61.40
2018-12-29T07:28:20.172Z,61.40
2018-12-29T07:30:50.668Z,61.30
2018-12-29T07:33:20.065Z,61.40
2018-12-29T07:35:49.490Z,61.30
2018-12-29T07:38:18.926Z,61.30
2018-12-29T07:40:48.323Z,61.30
2018-12-29T07:43:17.712Z,61.40
2018-12-29T07:45:48.076Z,61.40
2018-12-29T07:48:17.541Z,61.30
2018-12-29T07:50:46.935Z,61.40
2018-12-29T07:53:16.447Z,61.30
2018-12-29T07:55:45.923Z,61.30
2018-12-29T07:58:15.335Z,61.20
2018-12-29T08:00:44.924Z,61.20
2018-12-29T08:03:15.487Z,61.30
2018-12-29T08:05:44.907Z,61.20
2018-12-29T08:08:14.296Z,61.20
2018-12-29T08:10:43.692Z,61.30
2018-12-29T08:13:13.188Z,61.20
2018-12-29T08:15:43.685Z,61.30
2018-12-29T08:18:13.083Z,61.30
2018-12-29T08:20:42.574Z,61.20
2018-12-29T08:23:12.060Z,61.30
2018-12-29T08:25:43.352Z,61.10
2018-12-29T08:28:12.769Z,61.10
2018-12-29T08:30:43.221Z,60.90
2018-12-29T08:33:13.666Z,60.80
2018-12-29T08:35:44.242Z,60.70
2018-12-29T08:38:13.826Z,60.70
2018-12-29T08:40:43.357Z,60.60
2018-12-29T08:43:12.759Z,60.50
2018-12-29T08:45:42.239Z,60.50
2018-12-29T08:48:11.687Z,60.40
2018-12-29T08:50:41.118Z,60.30
2018-12-29T08:53:11.698Z,60.50
2018-12-29T08:55:42.637Z,60.50
2018-12-29T08:58:12.130Z,60.60
2018-12-29T09:00:41.606Z,60.50
2018-12-29T09:03:12.036Z,60.50
2018-12-29T09:05:42.020Z,60.30
2018-12-29T09:08:11.515Z,60.00
2018-12-29T09:10:40.955Z,59.80
2018-12-29T09:13:10.400Z,59.70
2018-12-29T09:15:39.807Z,59.70
2018-12-29T09:18:09.881Z,59.60
2018-12-29T09:20:39.445Z,60.00
2018-12-29T09:23:10.025Z,59.40
2018-12-29T09:25:39.465Z,59.40
2018-12-29T09:28:08.945Z,59.40
2018-12-29T09:30:38.376Z,59.30
2018-12-29T09:33:07.824Z,59.30
2018-12-29T09:35:37.349Z,59.20
2018-12-29T09:38:06.879Z,58.10
2018-12-29T09:40:36.359Z,57.90
2018-12-29T09:43:07.049Z,57.60
2018-12-29T09:45:38.048Z,57.40
2018-12-29T09:48:07.509Z,57.20
2018-12-29T09:50:38.033Z,57.00
2018-12-29T09:53:07.559Z,56.90
2018-12-29T09:55:38.157Z,56.80
2018-12-29T09:58:07.660Z,56.60
2018-12-29T10:00:37.063Z,56.80
2018-12-29T10:03:06.504Z,57.30
2018-12-29T10:05:35.945Z,56.50
2018-12-29T10:08:06.480Z,56.20
2018-12-29T10:10:36.618Z,55.80
2018-12-29T10:13:06.280Z,55.70
2018-12-29T10:15:37.480Z,55.60
2018-12-29T10:18:06.922Z,55.60
2018-12-29T10:20:36.401Z,55.70
2018-12-29T10:23:05.804Z,55.70
2018-12-29T10:25:36.353Z,55.60
2018-12-29T10:28:05.786Z,55.60
2018-12-29T10:30:36.905Z,55.50
2018-12-29T10:33:06.456Z,55.60
2018-12-29T10:35:35.966Z,55.80
2018-12-29T10:38:05.548Z,55.90
2018-12-29T10:40:34.985Z,56.10
2018-12-29T10:43:04.384Z,56.20
2018-12-29T10:45:33.873Z,55.90
2018-12-29T10:48:03.313Z,55.70
2018-12-29T10:50:32.864Z,55.60
2018-12-29T10:53:02.332Z,55.40
2018-12-29T10:55:31.837Z,55.40
2018-12-29T10:58:01.349Z,55.90
2018-12-29T11:00:34.989Z,55.60
2018-12-29T11:03:01.936Z,55.10
2018-12-29T11:05:33.237Z,54.40
2018-12-29T11:08:02.653Z,54.10
2018-12-29T11:10:32.297Z,54.00
2018-12-29T11:13:01.709Z,54.20
2018-12-29T11:15:31.254Z,54.00
2018-12-29T11:18:00.656Z,53.90
2018-12-29T11:20:30.092Z,54.00
2018-12-29T11:22:59.605Z,54.10
2018-12-29T11:25:30.481Z,54.00
2018-12-29T11:27:59.977Z,53.70
2018-12-29T11:30:29.582Z,53.50
2018-12-29T11:32:59.148Z,53.50
2018-12-29T11:35:30.369Z,53.40
2018-12-29T11:38:01.341Z,53.30
2018-12-29T11:40:30.832Z,53.20
2018-12-29T11:43:00.249Z,53.10
2018-12-29T11:45:29.789Z,53.20
2018-12-29T11:47:59.263Z,53.20
2018-12-29T11:50:28.662Z,53.10
2018-12-29T11:53:00.001Z,53.00
2018-12-29T11:55:31.385Z,53.10
2018-12-29T11:58:01.277Z,53.10
2018-12-29T12:00:30.784Z,53.20
2018-12-29T12:03:00.277Z,53.30
2018-12-29T12:05:29.784Z,54.00
2018-12-29T12:07:59.292Z,53.50
2018-12-29T12:10:28.773Z,53.60
2018-12-29T12:12:58.264Z,53.90
2018-12-29T12:15:29.620Z,53.70
2018-12-29T12:17:59.092Z,53.10
2018-12-29T12:20:30.185Z,52.30
2018-12-29T12:23:00.955Z,51.20
2018-12-29T12:25:30.452Z,50.30
2018-12-29T12:28:00.232Z,49.20
2018-12-29T12:30:29.708Z,48.30
2018-12-29T12:32:59.205Z,47.60
2018-12-29T12:35:38.492Z,46.70
2018-12-29T12:38:08.201Z,45.90
2018-12-29T12:40:38.788Z,45.30
2018-12-29T12:43:08.280Z,44.70
2018-12-29T12:45:39.191Z,44.30
2018-12-29T12:48:08.731Z,43.80
2018-12-29T12:50:38.279Z,43.40
2018-12-29T12:53:09.596Z,42.80
2018-12-29T12:55:39.407Z,42.60
2018-12-29T12:58:09.200Z,42.10
2018-12-29T13:00:42.628Z,41.70
2018-12-29T13:03:12.509Z,41.30
2018-12-29T13:05:42.055Z,41.50
2018-12-29T13:08:11.636Z,41.80
2018-12-29T13:10:41.292Z,42.20
2018-12-29T13:13:12.600Z,42.60
2018-12-29T13:15:42.080Z,43.20
2018-12-29T13:18:13.162Z,43.60
2018-12-29T13:20:42.852Z,43.40
2018-12-29T13:23:12.335Z,43.30
2018-12-29T13:25:41.814Z,42.90
2018-12-29T13:28:11.320Z,42.60
2018-12-29T13:30:40.858Z,42.50
2018-12-29T13:33:11.533Z,42.50
2018-12-29T13:35:41.020Z,42.50
2018-12-29T13:38:10.853Z,42.70
2018-12-29T13:40:40.372Z,42.70
2018-12-29T13:43:10.453Z,42.90
2018-12-29T13:45:40.036Z,43.20
2018-12-29T13:48:09.532Z,43.30
2018-12-29T13:50:39.459Z,43.40
2018-12-29T13:53:10.497Z,43.60
2018-12-29T13:55:39.988Z,43.90
2018-12-29T13:58:09.464Z,44.40
2018-12-29T14:00:38.980Z,44.80
2018-12-29T14:03:08.464Z,45.10
2018-12-29T14:05:38.064Z,45.20
2018-12-29T14:08:08.720Z,45.30
2018-12-29T14:10:38.230Z,45.40
2018-12-29T14:13:07.732Z,46.20
2018-12-29T14:15:40.031Z,46.00
2018-12-29T14:18:10.631Z,46.10
2018-12-29T14:20:41.111Z,46.60
2018-12-29T14:23:12.459Z,46.70
2018-12-29T14:25:42.248Z,47.00
2018-12-29T14:28:12.872Z,47.20
2018-12-29T14:30:42.356Z,47.60
2018-12-29T14:33:11.836Z,47.80
2018-12-29T14:35:41.351Z,47.90
2018-12-29T14:38:12.136Z,48.10
2018-12-29T14:40:42.400Z,48.20
2018-12-29T14:43:11.951Z,48.40
2018-12-29T14:45:42.636Z,48.50
2018-12-29T14:48:12.257Z,48.90
2018-12-29T14:50:41.742Z,48.90
2018-12-29T14:53:12.235Z,49.00
2018-12-29T14:55:43.717Z,49.20
2018-12-29T14:58:14.500Z,49.30
2018-12-29T15:00:45.797Z,49.40
2018-12-29T15:03:15.312Z,49.50
2018-12-29T15:05:45.900Z,49.70
2018-12-29T15:08:15.376Z,49.90
2018-12-29T15:10:44.938Z,50.10
2018-12-29T15:13:14.639Z,50.20
2018-12-29T15:15:45.937Z,50.40
2018-12-29T15:18:15.844Z,50.50
2018-12-29T15:20:46.799Z,50.60
2018-12-29T15:23:16.564Z,50.80
2018-12-29T15:25:47.153Z,51.00
2018-12-29T15:28:16.638Z,51.10
2018-12-29T15:30:46.956Z,51.20
2018-12-29T15:33:18.237Z,51.40
2018-12-29T15:35:49.852Z,51.60
2018-12-29T15:38:19.382Z,51.80
2018-12-29T15:40:49.348Z,52.00
2018-12-29T15:43:20.025Z,52.10
2018-12-29T15:45:49.529Z,52.20
2018-12-29T15:48:23.156Z,52.30
2018-12-29T15:50:53.640Z,52.50
2018-12-29T15:53:23.233Z,52.80
2018-12-29T15:55:52.750Z,52.80
2018-12-29T15:58:22.337Z,52.90
2018-12-29T16:00:51.836Z,52.90
2018-12-29T16:03:21.370Z,53.00
2018-12-29T16:05:51.256Z,53.90
2018-12-29T16:08:20.873Z,54.20
2018-12-29T16:10:50.388Z,54.30
2018-12-29T16:13:21.677Z,54.40
2018-12-29T16:15:51.195Z,54.40
2018-12-29T16:18:21.096Z,54.60
2018-12-29T16:20:53.644Z,54.80
2018-12-29T16:23:21.801Z,55.00
2018-12-29T16:25:51.731Z,55.70
2018-12-29T16:28:21.257Z,55.20
2018-12-29T16:30:50.849Z,55.40
2018-12-29T16:33:21.369Z,55.10
2018-12-29T16:35:51.157Z,55.50
2018-12-29T16:38:20.654Z,55.50
2018-12-29T16:40:57.667Z,55.70
2018-12-29T16:43:21.325Z,55.90
2018-12-29T16:45:51.809Z,56.50
2018-12-29T16:48:21.287Z,56.00
2018-12-29T16:50:52.604Z,56.00
2018-12-29T16:53:28.894Z,56.10
2018-12-29T16:55:53.332Z,56.20
2018-12-29T16:58:23.820Z,56.20
2018-12-29T17:00:53.774Z,56.30
2018-12-29T17:03:23.287Z,56.40
2018-12-29T17:05:52.772Z,56.50
2018-12-29T17:08:23.716Z,56.50
2018-12-29T17:10:53.422Z,56.50
2018-12-29T17:13:22.908Z,56.40
2018-12-29T17:15:54.326Z,56.50
2018-12-29T17:18:23.812Z,57.30
2018-12-29T17:20:53.325Z,56.80
2018-12-29T17:23:22.810Z,56.70
2018-12-29T17:25:52.296Z,56.90
2018-12-29T17:28:21.800Z,57.00
2018-12-29T17:30:51.382Z,57.00
2018-12-29T17:33:20.863Z,57.10
2018-12-29T17:35:50.366Z,57.20
2018-12-29T17:38:20.133Z,57.10
2018-12-29T17:40:49.712Z,57.20
2018-12-29T17:43:19.200Z,57.30
2018-12-29T17:45:48.692Z,57.40
2018-12-29T17:48:18.201Z,57.40
2018-12-29T17:50:47.691Z,57.30
2018-12-29T17:53:17.469Z,57.40
2018-12-29T17:55:47.970Z,57.50
2018-12-29T17:58:17.445Z,57.50
2018-12-29T18:00:49.401Z,57.60
2018-12-29T18:03:18.896Z,57.50
2018-12-29T18:05:48.744Z,57.50
2018-12-29T18:08:18.245Z,57.50
2018-12-29T18:10:48.823Z,57.60
2018-12-29T18:13:19.513Z,57.50
2018-12-29T18:15:50.117Z,57.50
2018-12-29T18:18:21.421Z,58.00
2018-12-29T18:20:50.893Z,57.60
2018-12-29T18:23:20.448Z,57.70
2018-12-29T18:25:49.992Z,57.90
2018-12-29T18:28:19.571Z,58.00
2018-12-29T18:30:49.040Z,58.00
2018-12-29T18:33:19.008Z,58.00
2018-12-29T18:35:48.550Z,57.90
2018-12-29T18:38:18.133Z,57.90
2018-12-29T18:40:48.712Z,58.00
2018-12-29T18:43:18.567Z,58.10
2018-12-29T18:45:48.049Z,58.20
2018-12-29T18:48:17.548Z,58.30
2018-12-29T18:50:47.360Z,58.20
2018-12-29T18:53:16.840Z,58.30
2018-12-29T18:55:46.319Z,58.20
2018-12-29T18:58:16.956Z,58.20
2018-12-29T19:00:46.461Z,58.30
2018-12-29T19:03:17.366Z,58.20
2018-12-29T19:05:46.871Z,58.30
2018-12-29T19:08:16.340Z,58.40
2018-12-29T19:10:45.853Z,58.50
2018-12-29T19:13:15.836Z,58.50
2018-12-29T19:15:45.873Z,58.60
2018-12-29T19:18:15.375Z,58.70
2018-12-29T19:20:45.179Z,58.70
2018-12-29T19:23:16.535Z,58.70
2018-12-29T19:25:46.422Z,58.80
2018-12-29T19:28:17.306Z,58.80
2018-12-29T19:30:46.871Z,58.60
2018-12-29T19:33:16.740Z,58.90
2018-12-29T19:35:46.649Z,59.10
2018-12-29T19:38:20.640Z,59.10
2018-12-29T19:40:51.034Z,59.10
2018-12-29T19:43:20.855Z,59.10
2018-12-29T19:45:50.430Z,59.20
2018-12-29T19:48:19.936Z,59.40
2018-12-29T19:50:49.809Z,59.30
2018-12-29T19:53:19.461Z,59.30
2018-12-29T19:55:48.970Z,59.30
2018-12-29T19:58:18.440Z,59.20
2018-12-29T20:00:49.384Z,59.30
2018-12-29T20:03:19.304Z,59.30
2018-12-29T20:05:49.160Z,59.30
2018-12-29T20:08:18.764Z,59.30
2018-12-29T20:10:48.272Z,59.30
2018-12-29T20:13:19.212Z,59.20
2018-12-29T20:15:48.695Z,59.40
2018-12-29T20:18:20.128Z,59.40
2018-12-29T20:20:49.601Z,59.40
2018-12-29T20:23:19.121Z,59.30
2018-12-29T20:25:48.592Z,59.40
2018-12-29T20:28:18.080Z,59.50
2018-12-29T20:30:49.364Z,59.50
2018-12-29T20:33:19.689Z,59.60
2018-12-29T20:35:49.181Z,59.60
2018-12-29T20:38:18.685Z,59.60
2018-12-29T20:40:48.193Z,59.50
2018-12-29T20:43:17.668Z,59.50
2018-12-29T20:45:47.152Z,59.60
2018-12-29T20:48:16.657Z,59.60
2018-12-29T20:50:46.127Z,59.70
2018-12-29T20:53:17.416Z,60.00
2018-12-29T20:55:47.364Z,59.50
2018-12-29T20:58:17.948Z,59.60
2018-12-29T21:00:47.805Z,59.60
2018-12-29T21:03:18.476Z,59.70
2018-12-29T21:05:48.038Z,59.60
2018-12-29T21:08:17.525Z,59.60
2018-12-29T21:10:47.024Z,59.70
2018-12-29T21:13:16.609Z,59.80
2018-12-29T21:15:46.113Z,59.90
2018-12-29T21:18:15.632Z,59.90
2018-12-29T21:20:45.116Z,59.90
2018-12-29T21:23:14.602Z,60.00
2018-12-29T21:25:44.129Z,60.00
2018-12-29T21:28:13.676Z,60.20
2018-12-29T21:30:44.196Z,60.30
2018-12-29T21:33:13.703Z,60.30
2018-12-29T21:35:44.188Z,60.40
2018-12-29T21:38:14.381Z,60.40
2018-12-29T21:40:43.884Z,60.50
2018-12-29T21:43:13.369Z,60.50
2018-12-29T21:45:42.900Z,60.40
2018-12-29T21:48:12.448Z,60.40
2018-12-29T21:50:42.224Z,60.40
2018-12-29T21:53:12.721Z,60.40
2018-12-29T21:55:43.264Z,60.50
2018-12-29T21:58:12.913Z,60.50
2018-12-29T22:00:42.380Z,60.50
2018-12-29T22:03:13.097Z,60.50
2018-12-29T22:05:44.401Z,60.40
2018-12-29T22:08:13.877Z,60.30
2018-12-29T22:10:44.875Z,60.30
2018-12-29T22:13:16.288Z,60.40
2018-12-29T22:15:45.764Z,60.50
2018-12-29T22:18:18.533Z,60.40
2018-12-29T22:20:48.035Z,60.40
2018-12-29T22:23:17.514Z,60.40
2018-12-29T22:25:48.326Z,60.40
2018-12-29T22:28:19.893Z,60.50
2018-12-29T22:30:49.373Z,60.30
2018-12-29T22:33:20.678Z,60.40
2018-12-29T22:35:50.171Z,60.30
2018-12-29T22:38:20.053Z,60.30
2018-12-29T22:40:49.552Z,60.30
2018-12-29T22:43:20.139Z,60.40
2018-12-29T22:45:51.415Z,60.40
2018-12-29T22:48:20.924Z,60.40
2018-12-29T22:50:50.706Z,60.30
2018-12-29T22:53:20.184Z,60.30
2018-12-29T22:55:51.504Z,60.30
2018-12-29T22:58:21.041Z,60.10
2018-12-29T23:00:51.163Z,60.80
2018-12-29T23:03:20.761Z,60.10
2018-12-29T23:05:50.277Z,60.10
2018-12-29T23:08:19.761Z,60.00
2018-12-29T23:10:49.238Z,60.20
2018-12-29T23:13:18.747Z,60.40
2018-12-29T23:15:48.288Z,61.20
2018-12-29T23:18:17.765Z,60.50
2018-12-29T23:20:49.944Z,60.50
2018-12-29T23:23:19.872Z,60.40
2018-12-29T23:25:49.847Z,60.50
2018-12-29T23:28:19.472Z,60.60
2018-12-29T23:30:50.047Z,60.50
2018-12-29T23:33:19.533Z,60.60
2018-12-29T23:35:49.027Z,60.50
2018-12-29T23:38:18.513Z,60.60
2018-12-29T23:40:49.124Z,60.90
2018-12-29T23:43:18.635Z,61.00
2018-12-29T23:45:48.156Z,61.10
2018-12-29T23:48:17.668Z,61.10
2018-12-29T23:50:47.151Z,61.20
2018-12-29T23:53:16.651Z,61.40
2018-12-29T23:55:46.355Z,61.30
2018-12-29T23:58:17.049Z,61.50
